Time;durP1;ratioP1;P1;durP2;ratioP2;P2;SDS_P1;SDS_P2;PMS_P1;PMS_P2;Temp;Humidity;BMP_temperature;BMP_pressure;BME280_temperature;BME280_humidity;BME280_pressure;Samples;Min_cycle;Max_cycle;Signal;HPM_P1;HPM_P2
2021/12/21 00:01:59;;;;;;;22.27;12.80;;;5.00;89.50;;;;;;5019209;28;20029;-67
2021/12/21 00:04:24;;;;;;;24.42;13.48;;;5.00;89.10;;;;;;5036645;28;20018;-67
2021/12/21 00:06:50;;;;;;;20.27;11.10;;;5.00;89.30;;;;;;5035421;28;20068;-66
2021/12/21 00:09:16;;;;;;;20.55;11.93;;;5.00;89.10;;;;;;5024972;28;20025;-67
2021/12/21 00:11:42;;;;;;;24.23;13.25;;;5.00;88.70;;;;;;5031035;28;20025;-67
2021/12/21 00:14:22;;;;;;;21.80;12.18;;;5.00;88.80;;;;;;5036803;28;20029;-67
2021/12/21 00:17:44;;;;;;;19.47;11.47;;;5.00;89.00;;;;;;5034154;28;20101;-67
2021/12/21 00:22:09;;;;;;;18.77;10.57;;;5.00;89.00;;;;;;5037602;28;20026;-67
2021/12/21 00:24:42;;;;;;;16.63;10.18;;;5.00;88.40;;;;;;5034984;28;20087;-67
2021/12/21 00:27:08;;;;;;;20.50;12.55;;;5.00;88.00;;;;;;5030309;28;20103;-67
2021/12/21 00:29:34;;;;;;;19.45;10.63;;;5.00;88.40;;;;;;5023662;28;20033;-67
2021/12/21 00:32:00;;;;;;;21.85;11.63;;;5.00;88.00;;;;;;5031209;28;20022;-67
2021/12/21 00:34:26;;;;;;;17.08;10.35;;;5.00;88.20;;;;;;5026520;28;20037;-67
2021/12/21 00:36:52;;;;;;;23.60;11.88;;;5.00;87.90;;;;;;5024499;28;20025;-67
2021/12/21 00:39:18;;;;;;;21.88;11.43;;;5.00;88.00;;;;;;5017587;28;20081;-67
2021/12/21 00:41:44;;;;;;;25.65;14.13;;;5.00;88.00;;;;;;5030612;28;20072;-67
2021/12/21 00:44:09;;;;;;;26.92;13.73;;;5.00;88.10;;;;;;5042392;28;20029;-67
2021/12/21 00:46:36;;;;;;;23.30;12.45;;;5.00;88.10;;;;;;5040281;28;20034;-67
2021/12/21 00:49:13;;;;;;;22.08;12.07;;;5.00;88.40;;;;;;5042030;28;20509;-67
2021/12/21 00:51:39;;;;;;;30.20;13.75;;;5.00;88.30;;;;;;5036020;28;20036;-67
2021/12/21 00:54:05;;;;;;;25.15;13.60;;;5.00;88.40;;;;;;5019641;28;20026;-67
2021/12/21 00:56:31;;;;;;;19.13;11.73;;;5.00;88.50;;;;;;5027239;28;20046;-67
2021/12/21 00:58:56;;;;;;;17.85;9.98;;;5.00;87.90;;;;;;5017908;28;20083;-67
2021/12/21 01:01:22;;;;;;;22.42;10.95;;;5.00;87.80;;;;;;5034951;28;20033;-67
2021/12/21 01:03:51;;;;;;;25.02;12.27;;;5.00;88.00;;;;;;5029663;28;20021;-66
2021/12/21 01:06:40;;;;;;;26.85;13.85;;;5.00;88.00;;;;;;5018733;28;20139;-67
2021/12/21 01:09:14;;;;;;;18.80;11.07;;;5.00;88.00;;;;;;5042965;28;20027;-67
2021/12/21 01:11:48;;;;;;;22.80;12.55;;;4.90;88.20;;;;;;5034626;28;20424;-67
2021/12/21 01:17:10;;;;;;;27.35;14.02;;;4.60;88.70;;;;;;5037597;28;20036;-67
2021/12/21 01:19:44;;;;;;;22.73;11.70;;;4.50;89.20;;;;;;5041432;28;20112;-67
2021/12/21 01:27:32;;;;;;;25.27;12.55;;;4.20;90.30;;;;;;5041522;28;20032;-67
2021/12/21 01:35:10;;;;;;;29.70;15.32;;;4.00;90.80;;;;;;5039745;28;20057;-67
2021/12/21 01:37:55;;;;;;;29.42;14.88;;;3.90;91.00;;;;;;5032907;28;20040;-66
2021/12/21 01:50:58;;;;;;;31.02;15.32;;;3.60;91.50;;;;;;5025773;28;20037;-67
2021/12/21 01:53:23;;;;;;;30.85;15.13;;;3.50;91.60;;;;;;5033233;28;20033;-66
2021/12/21 01:55:49;;;;;;;30.73;15.23;;;3.40;91.60;;;;;;5029268;28;20037;-66
2021/12/21 01:58:15;;;;;;;34.33;17.23;;;3.30;91.70;;;;;;5043718;28;20737;-67
2021/12/21 02:00:41;;;;;;;28.95;15.88;;;3.30;91.80;;;;;;5039295;28;20519;-67
2021/12/21 02:03:09;;;;;;;31.77;16.42;;;3.20;91.80;;;;;;5025768;28;20561;-66
2021/12/21 02:05:35;;;;;;;34.17;16.65;;;3.10;91.80;;;;;;5032328;28;20045;-67
2021/12/21 02:08:02;;;;;;;31.05;16.60;;;3.10;91.80;;;;;;5032363;28;20162;-67
2021/12/21 02:10:29;;;;;;;30.95;15.55;;;3.00;91.80;;;;;;5015871;28;20029;-67
2021/12/21 02:12:54;;;;;;;27.98;14.48;;;3.00;91.90;;;;;;5039625;28;20119;-67
2021/12/21 02:15:20;;;;;;;29.38;14.85;;;2.90;91.80;;;;;;5034438;28;20096;-66
2021/12/21 02:30:25;;;;;;;28.00;14.27;;;2.60;91.80;;;;;;5033803;28;20143;-66
2021/12/21 02:32:52;;;;;;;24.58;13.15;;;2.50;91.80;;;;;;5045532;28;20037;-66
2021/12/21 02:35:18;;;;;;;26.15;13.52;;;2.50;91.80;;;;;;5043935;28;20416;-67
2021/12/21 02:37:44;;;;;;;27.77;13.35;;;2.40;91.70;;;;;;5042001;28;20037;-67
2021/12/21 02:40:11;;;;;;;29.58;13.75;;;2.40;91.70;;;;;;5047514;28;20048;-67
2021/12/21 02:42:37;;;;;;;29.50;14.50;;;2.30;91.70;;;;;;5045407;28;20029;-67
2021/12/21 02:45:05;;;;;;;28.50;14.27;;;2.30;91.70;;;;;;5034799;28;20044;-67
2021/12/21 02:47:31;;;;;;;28.52;14.02;;;2.30;91.70;;;;;;5033122;28;20382;-67
2021/12/21 02:49:56;;;;;;;35.38;15.75;;;2.20;91.70;;;;;;5040872;28;20036;-67
2021/12/21 02:52:23;;;;;;;34.45;16.48;;;2.20;91.70;;;;;;5044296;28;20681;-67
2021/12/21 02:54:48;;;;;;;30.25;14.57;;;2.10;91.80;;;;;;5032404;28;20032;-67
2021/12/21 02:57:14;;;;;;;29.42;14.25;;;2.10;91.90;;;;;;5039110;28;20033;-67
2021/12/21 02:59:40;;;;;;;32.40;15.45;;;2.10;91.90;;;;;;5030709;28;20028;-67
2021/12/21 03:02:05;;;;;;;27.92;13.95;;;2.10;91.90;;;;;;5035922;28;20116;-67
2021/12/21 03:04:31;;;;;;;27.40;13.60;;;2.00;92.00;;;;;;5040179;28;20158;-66
2021/12/21 03:11:57;;;;;;;28.98;14.30;;;1.90;91.90;;;;;;5023608;28;20029;-66
2021/12/21 03:14:23;;;;;;;30.30;13.77;;;1.90;92.00;;;;;;5040058;28;20036;-67
2021/12/21 03:16:50;;;;;;;29.40;13.38;;;1.90;92.00;;;;;;5035475;28;20517;-66
2021/12/21 03:19:15;;;;;;;28.02;13.65;;;1.90;92.00;;;;;;5042593;28;20088;-66
2021/12/21 03:21:41;;;;;;;26.30;12.75;;;1.80;92.00;;;;;;5038186;28;20025;-67
2021/12/21 03:24:09;;;;;;;28.10;13.45;;;1.80;92.00;;;;;;5025401;28;20040;-66
2021/12/21 03:26:35;;;;;;;26.67;13.63;;;1.80;92.00;;;;;;5023681;28;20501;-67
2021/12/21 03:29:04;;;;;;;29.02;13.85;;;1.70;92.00;;;;;;5044919;28;20013;-66
2021/12/21 03:31:30;;;;;;;31.63;14.35;;;1.70;92.00;;;;;;5034709;28;20076;-66
2021/12/21 03:33:56;;;;;;;26.95;12.50;;;1.70;92.00;;;;;;5044751;28;20033;-66
2021/12/21 03:36:22;;;;;;;28.00;13.13;;;1.70;92.10;;;;;;5016118;28;20045;-66
2021/12/21 03:39:05;;;;;;;27.77;12.98;;;1.60;92.10;;;;;;5026349;28;20111;-67
2021/12/21 03:41:32;;;;;;;26.45;12.40;;;1.60;92.00;;;;;;5023102;28;20117;-67
2021/12/21 03:44:01;;;;;;;27.52;13.40;;;1.60;92.00;;;;;;5038053;28;20036;-66
2021/12/21 03:46:28;;;;;;;26.88;12.43;;;1.60;92.00;;;;;;5027739;28;20034;-66
2021/12/21 03:48:53;;;;;;;26.17;13.02;;;1.50;92.00;;;;;;5034453;28;20037;-66
2021/12/21 03:51:22;;;;;;;26.40;12.73;;;1.50;92.00;;;;;;5042982;28;20086;-67
2021/12/21 03:53:49;;;;;;;26.58;12.95;;;1.50;92.00;;;;;;5030892;28;20066;-66
2021/12/21 03:56:38;;;;;;;25.02;12.10;;;1.50;92.00;;;;;;5025400;28;20034;-67
2021/12/21 03:59:06;;;;;;;25.02;12.10;;;1.40;92.00;;;;;;5015826;28;20073;-67
2021/12/21 04:01:32;;;;;;;26.63;12.13;;;1.40;92.10;;;;;;5021860;28;20598;-67
2021/12/21 04:03:58;;;;;;;27.15;13.43;;;1.30;92.00;;;;;;5040130;28;20126;-66
2021/12/21 04:06:23;;;;;;;39.75;21.77;;;1.30;92.00;;;;;;5035613;28;20050;-66
2021/12/21 04:08:49;;;;;;;28.77;14.15;;;1.30;92.00;;;;;;5026511;28;20529;-66
2021/12/21 04:11:15;;;;;;;31.67;13.70;;;1.30;92.50;;;;;;5029041;28;20434;-66
2021/12/21 04:13:41;;;;;;;31.23;14.20;;;1.30;92.20;;;;;;5039933;28;20025;-66
2021/12/21 04:16:07;;;;;;;30.40;13.90;;;1.30;92.20;;;;;;5037952;28;20022;-67
2021/12/21 04:18:38;;;;;;;30.90;13.65;;;1.30;92.30;;;;;;5043003;28;20036;-66
2021/12/21 04:21:05;;;;;;;30.13;13.70;;;1.20;92.30;;;;;;5030406;28;20021;-66
2021/12/21 04:23:31;;;;;;;26.88;12.68;;;1.20;92.30;;;;;;5036878;28;20037;-66
2021/12/21 04:25:57;;;;;;;27.13;12.15;;;1.20;92.30;;;;;;5037178;28;20036;-66
2021/12/21 04:28:23;;;;;;;27.45;12.75;;;1.20;92.30;;;;;;5029261;28;20033;-66
2021/12/21 04:30:49;;;;;;;26.90;12.95;;;1.20;92.30;;;;;;5036754;28;20099;-66
2021/12/21 04:33:15;;;;;;;29.95;13.68;;;1.10;92.30;;;;;;5032703;28;20036;-66
2021/12/21 04:35:41;;;;;;;29.65;13.45;;;1.10;92.40;;;;;;5022249;28;20042;-66
2021/12/21 04:38:20;;;;;;;31.30;13.95;;;1.10;92.80;;;;;;5021948;28;20018;-66
2021/12/21 06:52:56;;;;;;;37.05;14.00;;;0.30;96.90;;;;;;5076355;28;20806;-66
2021/12/21 06:55:21;;;;;;;41.22;14.65;;;0.20;97.40;;;;;;5071033;28;20040;-66
2021/12/21 06:57:47;;;;;;;39.03;14.45;;;0.30;97.60;;;;;;5055803;28;20656;-66
2021/12/21 07:00:16;;;;;;;45.60;16.33;;;0.30;97.70;;;;;;5068555;28;20079;-66
2021/12/21 07:02:42;;;;;;;40.80;15.18;;;0.40;97.80;;;;;;5068992;28;20116;-66
2021/12/21 07:05:09;;;;;;;39.33;15.55;;;0.40;97.90;;;;;;5062405;28;20028;-66
2021/12/21 07:07:35;;;;;;;55.38;17.40;;;0.50;97.90;;;;;;5076673;28;20028;-66
2021/12/21 07:10:05;;;;;;;48.25;16.80;;;0.60;97.90;;;;;;5065051;28;20434;-66
2021/12/21 07:18:03;;;;;;;42.63;16.73;;;0.60;97.80;;;;;;5052337;28;20044;-66
2021/12/21 07:18:10;;;;;;;42.78;16.13;;;0.70;97.50;;;;;;5062418;28;20085;-66
2021/12/21 07:20:36;;;;;;;43.30;15.63;;;0.70;97.40;;;;;;5060670;28;20108;-66
2021/12/21 07:23:03;;;;;;;39.42;15.98;;;0.70;97.20;;;;;;5051228;28;20454;-66
2021/12/21 07:25:29;;;;;;;40.95;15.73;;;0.80;97.20;;;;;;5050729;28;20033;-67
2021/12/21 07:27:55;;;;;;;43.67;15.98;;;0.70;97.10;;;;;;5076489;28;20020;-67
2021/12/21 07:30:21;;;;;;;40.53;14.95;;;0.80;97.10;;;;;;5064950;28;20074;-67
2021/12/21 07:32:47;;;;;;;40.53;15.20;;;0.80;97.10;;;;;;5054774;28;20064;-67
2021/12/21 07:35:13;;;;;;;46.38;16.10;;;0.80;96.90;;;;;;5056987;28;20500;-67
2021/12/21 07:37:39;;;;;;;39.28;15.18;;;0.80;96.80;;;;;;5073302;28;20047;-67
2021/12/21 07:40:06;;;;;;;40.88;16.45;;;0.80;96.80;;;;;;5057666;28;20029;-67
2021/12/21 07:42:32;;;;;;;41.38;16.38;;;0.80;96.70;;;;;;5050737;28;20036;-67
2021/12/21 07:44:58;;;;;;;37.40;15.85;;;0.80;96.60;;;;;;5052035;28;20523;-67
2021/12/21 07:47:24;;;;;;;40.90;15.32;;;0.80;96.60;;;;;;5057732;28;20048;-68
2021/12/21 07:49:50;;;;;;;39.78;15.85;;;0.80;96.50;;;;;;5060022;28;20064;-68
2021/12/21 07:52:17;;;;;;;38.85;16.00;;;0.80;96.40;;;;;;5061982;28;20041;-68
2021/12/21 07:54:43;;;;;;;41.55;15.63;;;0.80;96.30;;;;;;5065907;28;20154;-68
2021/12/21 07:57:09;;;;;;;41.50;15.05;;;0.80;96.30;;;;;;5060352;28;20055;-68
2021/12/21 07:59:37;;;;;;;47.25;15.63;;;0.80;96.30;;;;;;5056044;28;20021;-67
2021/12/21 08:02:03;;;;;;;40.20;15.30;;;0.80;96.30;;;;;;5054191;28;20041;-68
2021/12/21 08:04:29;;;;;;;37.25;14.32;;;0.80;96.20;;;;;;5048505;28;20025;-67
2021/12/21 08:07:00;;;;;;;40.58;15.02;;;0.80;96.10;;;;;;5050749;28;20056;-68
2021/12/21 08:09:32;;;;;;;35.53;15.32;;;0.90;96.10;;;;;;5046325;28;20029;-68
2021/12/21 08:12:13;;;;;;;37.40;14.15;;;0.90;96.10;;;;;;5036866;28;20132;-68
2021/12/21 08:14:39;;;;;;;33.92;14.38;;;0.90;96.00;;;;;;5047588;28;20036;-68
2021/12/21 08:17:05;;;;;;;32.05;14.05;;;1.00;95.80;;;;;;5043988;28;20050;-68
2021/12/21 08:19:31;;;;;;;35.05;14.02;;;1.20;95.70;;;;;;5037835;28;20492;-68
2021/12/21 08:21:56;;;;;;;35.95;14.10;;;1.40;95.50;;;;;;5035687;28;20026;-68
2021/12/21 08:24:22;;;;;;;31.55;13.65;;;1.60;95.20;;;;;;5045392;28;20071;-68
2021/12/21 08:26:48;;;;;;;28.40;13.65;;;2.10;94.80;;;;;;5038328;28;20029;-67
2021/12/21 08:29:14;;;;;;;32.88;12.75;;;3.00;93.90;;;;;;5042616;28;20024;-68
2021/12/21 08:31:39;;;;;;;28.23;12.40;;;3.80;92.70;;;;;;5047518;28;20156;-67
2021/12/21 08:34:05;;;;;;;27.65;13.00;;;4.60;91.70;;;;;;5042577;28;20033;-67
2021/12/21 08:36:31;;;;;;;27.52;13.43;;;5.40;90.50;;;;;;5033705;28;20030;-67
2021/12/21 08:38:57;;;;;;;29.17;14.98;;;6.10;88.30;;;;;;5048259;28;20036;-67
2021/12/21 08:41:24;;;;;;;28.73;16.25;;;6.80;85.20;;;;;;5041437;28;20032;-67
2021/12/21 08:43:51;;;;;;;30.48;16.08;;;7.50;82.80;;;;;;5046063;28;20048;-67
2021/12/21 08:46:16;;;;;;;29.13;16.67;;;8.10;80.10;;;;;;5035285;28;20029;-67
2021/12/21 08:48:42;;;;;;;30.35;17.33;;;8.70;77.40;;;;;;5032618;28;20459;-67
2021/12/21 08:51:08;;;;;;;31.33;16.30;;;9.30;75.30;;;;;;5035595;28;20520;-67
2021/12/21 08:53:36;;;;;;;27.75;16.88;;;9.90;72.20;;;;;;5034442;28;20036;-67
2021/12/21 08:56:03;;;;;;;26.98;15.70;;;10.30;70.20;;;;;;5043992;28;20552;-67
2021/12/21 08:58:28;;;;;;;26.83;16.77;;;10.40;66.10;;;;;;5035995;28;20036;-68
2021/12/21 09:00:54;;;;;;;25.17;16.95;;;10.70;65.40;;;;;;5050543;28;20029;-68
2021/12/21 09:03:21;;;;;;;30.77;27.63;;;11.00;61.90;;;;;;5034624;28;20045;-68
2021/12/21 09:05:47;;;;;;;19.45;11.60;;;11.30;59.20;;;;;;5037112;28;20112;-68
2021/12/21 09:08:13;;;;;;;70.38;65.50;;;11.90;56.60;;;;;;5041802;28;20607;-68
2021/12/21 09:10:40;;;;;;;55.58;51.00;;;12.30;54.80;;;;;;5046637;28;20025;-68
2021/12/21 09:13:08;;;;;;;25.60;15.20;;;12.70;52.20;;;;;;5033854;28;20106;-69
2021/12/21 09:15:34;;;;;;;23.38;11.68;;;11.60;53.40;;;;;;5047826;28;20025;-68
2021/12/21 09:18:00;;;;;;;23.83;13.32;;;10.20;56.10;;;;;;5035599;28;20034;-68
2021/12/21 09:20:28;;;;;;;23.55;10.85;;;9.20;60.10;;;;;;5035633;28;20455;-68
2021/12/21 09:22:54;;;;;;;20.20;10.25;;;8.40;63.30;;;;;;5034342;28;20037;-68
2021/12/21 09:25:21;;;;;;;24.48;12.63;;;7.70;65.30;;;;;;5044558;28;20108;-68
2021/12/21 09:27:47;;;;;;;26.63;12.52;;;7.10;67.90;;;;;;5031524;28;20112;-68
2021/12/21 09:30:15;;;;;;;25.25;12.40;;;6.70;70.20;;;;;;5047924;28;20641;-68
2021/12/21 09:32:41;;;;;;;34.85;12.45;;;6.40;72.40;;;;;;5037850;28;20516;-68
2021/12/21 09:35:08;;;;;;;22.42;11.15;;;6.10;73.90;;;;;;5034456;28;20031;-68
2021/12/21 09:37:34;;;;;;;28.67;12.73;;;5.90;75.20;;;;;;5048810;28;20413;-68
2021/12/21 09:40:00;;;;;;;26.48;11.77;;;5.70;75.90;;;;;;5049805;28;20029;-68
2021/12/21 09:42:29;;;;;;;21.88;10.30;;;5.60;77.00;;;;;;5041884;28;20134;-68
2021/12/21 09:44:56;;;;;;;30.13;12.10;;;5.50;77.70;;;;;;5045767;28;20032;-68
2021/12/21 09:47:21;;;;;;;26.23;12.40;;;5.40;78.70;;;;;;5040587;28;20107;-67
2021/12/21 09:49:49;;;;;;;21.45;11.40;;;5.40;79.30;;;;;;5034395;28;20088;-68
2021/12/21 09:52:20;;;;;;;25.55;11.20;;;5.30;79.60;;;;;;5034485;28;20052;-67
2021/12/21 09:54:46;;;;;;;19.75;9.45;;;5.30;79.60;;;;;;5031176;28;20033;-68
2021/12/21 09:57:16;;;;;;;19.65;9.68;;;5.30;80.00;;;;;;5053920;28;20100;-68
2021/12/21 09:59:45;;;;;;;24.17;11.63;;;5.30;80.10;;;;;;5054413;28;20048;-68
2021/12/21 10:02:12;;;;;;;20.50;9.73;;;5.20;79.90;;;;;;5042213;28;20033;-68
2021/12/21 10:05:06;;;;;;;22.58;9.25;;;5.20;80.30;;;;;;5038710;28;20507;-67
2021/12/21 10:07:33;;;;;;;21.95;10.18;;;5.20;80.20;;;;;;5052703;28;20064;-68
2021/12/21 10:10:12;;;;;;;22.30;10.73;;;5.20;80.40;;;;;;5050886;28;20064;-68
2021/12/21 10:12:44;;;;;;;24.23;10.80;;;5.20;80.20;;;;;;5049780;28;20025;-68
2021/12/21 10:15:21;;;;;;;20.05;11.25;;;5.30;80.50;;;;;;5036770;28;20124;-68
2021/12/21 10:17:51;;;;;;;20.00;8.68;;;5.30;80.90;;;;;;5050858;28;20024;-68
2021/12/21 10:20:30;;;;;;;22.40;11.38;;;5.40;80.30;;;;;;5048990;28;20030;-68
2021/12/21 10:22:55;;;;;;;21.25;10.18;;;5.50;80.50;;;;;;5045343;28;20047;-68
2021/12/21 10:25:24;;;;;;;19.23;10.05;;;5.60;79.60;;;;;;5054835;28;20014;-68
2021/12/21 10:27:50;;;;;;;23.05;10.77;;;5.70;79.40;;;;;;5050954;28;20052;-67
2021/12/21 10:30:16;;;;;;;17.35;8.75;;;6.00;78.70;;;;;;5036085;28;20045;-67
2021/12/21 10:32:53;;;;;;;19.88;10.80;;;6.50;76.40;;;;;;5035445;28;20163;-67
2021/12/21 10:35:20;;;;;;;23.10;15.43;;;7.90;73.30;;;;;;5035561;28;20121;-68
2021/12/21 10:37:50;;;;;;;28.75;21.17;;;10.30;64.70;;;;;;5034888;28;20450;-67
2021/12/21 10:40:26;;;;;;;20.30;13.80;;;12.90;55.90;;;;;;5048441;28;20062;-68
2021/12/21 10:42:58;;;;;;;22.80;19.92;;;13.60;51.40;;;;;;5053250;28;20041;-68
2021/12/21 10:45:28;;;;;;;32.17;29.48;;;15.50;48.30;;;;;;5041514;28;20025;-69
2021/12/21 10:47:55;;;;;;;22.00;19.75;;;17.10;43.10;;;;;;5046443;28;20033;-68
2021/12/21 10:50:21;;;;;;;23.63;21.35;;;18.30;40.10;;;;;;5046903;28;20515;-69
2021/12/21 10:52:49;;;;;;;35.97;33.13;;;19.40;37.60;;;;;;5055974;28;20041;-68
2021/12/21 10:55:15;;;;;;;22.88;20.50;;;20.00;35.40;;;;;;5046690;28;20025;-68
2021/12/21 10:57:41;;;;;;;19.13;12.55;;;20.90;34.30;;;;;;5034733;28;20056;-68
2021/12/21 11:00:14;;;;;;;17.80;11.82;;;20.00;33.90;;;;;;5048879;28;20029;-69
2021/12/21 11:02:40;;;;;;;16.63;11.05;;;19.30;35.00;;;;;;5037531;28;20086;-69
2021/12/21 11:05:12;;;;;;;21.05;14.50;;;18.50;36.40;;;;;;5038058;28;20393;-69
2021/12/21 11:07:45;;;;;;;17.98;14.98;;;19.70;35.90;;;;;;5044016;28;20056;-69
2021/12/21 11:10:16;;;;;;;15.35;13.68;;;21.00;33.30;;;;;;5029583;28;20550;-68
2021/12/21 11:12:54;;;;;;;18.92;13.73;;;21.80;31.20;;;;;;5047246;28;20026;-68
2021/12/21 11:15:31;;;;;;;17.92;13.40;;;22.20;30.30;;;;;;5053407;28;20044;-69
2021/12/21 11:18:03;;;;;;;24.88;15.30;;;22.40;29.80;;;;;;5034643;28;20052;-69
2021/12/21 11:20:28;;;;;;;23.17;18.38;;;23.00;29.60;;;;;;5036916;28;20029;-69
2021/12/21 11:22:55;;;;;;;15.55;13.93;;;23.50;29.10;;;;;;5047451;28;20097;-67
2021/12/21 11:25:22;;;;;;;20.55;15.43;;;23.80;28.10;;;;;;5047972;28;20492;-67
2021/12/21 11:27:48;;;;;;;22.20;20.02;;;24.20;27.90;;;;;;5063352;28;20024;-68
2021/12/21 11:30:17;;;;;;;20.63;18.17;;;24.60;27.30;;;;;;5047524;28;20025;-67
2021/12/21 11:32:48;;;;;;;18.98;16.80;;;24.80;26.70;;;;;;5035471;28;20477;-67
2021/12/21 11:37:48;;;;;;;18.40;16.50;;;24.80;26.40;;;;;;5038788;28;20029;-68
2021/12/21 11:40:19;;;;;;;43.43;40.27;;;24.80;26.60;;;;;;5057703;28;20021;-67
2021/12/21 11:42:51;;;;;;;26.63;24.25;;;25.00;26.00;;;;;;5051380;28;20048;-67
2021/12/21 11:45:23;;;;;;;16.58;14.23;;;25.10;26.00;;;;;;5037942;28;20496;-67
2021/12/21 11:48:11;;;;;;;18.17;15.23;;;25.60;25.90;;;;;;5044338;28;20416;-68
2021/12/21 11:50:48;;;;;;;18.33;11.68;;;25.90;25.20;;;;;;5044734;28;20025;-67
2021/12/21 11:53:21;;;;;;;14.35;11.18;;;25.90;25.40;;;;;;5046775;28;20035;-67
2021/12/21 11:55:49;;;;;;;17.85;12.27;;;26.40;25.10;;;;;;5049265;28;20055;-67
2021/12/21 11:58:25;;;;;;;15.93;12.85;;;26.70;24.60;;;;;;5045109;28;20101;-67
2021/12/21 12:01:23;;;;;;;14.52;12.98;;;26.50;24.00;;;;;;5046694;28;20028;-67
2021/12/21 12:04:09;;;;;;;11.57;9.18;;;26.40;24.30;;;;;;5048692;28;20127;-68
2021/12/21 12:06:53;;;;;;;11.93;8.77;;;26.00;24.40;;;;;;5047088;28;20119;-68
2021/12/21 12:09:32;;;;;;;14.38;8.93;;;26.00;24.40;;;;;;5047198;28;20036;-68
2021/12/21 12:12:11;;;;;;;12.75;8.90;;;26.00;24.50;;;;;;5047179;28;20036;-68
2021/12/21 12:14:38;;;;;;;11.93;9.38;;;25.70;24.40;;;;;;5046242;28;20377;-67
2021/12/21 12:17:11;;;;;;;13.27;8.82;;;26.10;24.70;;;;;;5052756;28;20099;-68
2021/12/21 12:19:43;;;;;;;10.50;6.85;;;26.40;24.00;;;;;;5039605;28;20057;-68
2021/12/21 12:22:13;;;;;;;12.75;8.32;;;26.20;23.60;;;;;;5045043;28;20033;-68
2021/12/21 12:24:45;;;;;;;13.63;7.97;;;25.60;24.30;;;;;;5042662;28;20039;-68
2021/12/21 12:27:23;;;;;;;11.52;8.10;;;25.50;24.60;;;;;;5044611;28;20017;-67
2021/12/21 12:29:54;;;;;;;12.98;8.05;;;23.70;26.20;;;;;;5038829;28;20039;-68
2021/12/21 12:32:36;;;;;;;12.68;7.55;;;20.50;28.60;;;;;;5053240;28;20040;-68
2021/12/21 12:35:12;;;;;;;11.68;7.45;;;18.30;31.70;;;;;;5045349;28;20104;-68
2021/12/21 12:37:57;;;;;;;12.48;7.28;;;17.20;34.70;;;;;;5036238;28;20032;-68
2021/12/21 12:40:39;;;;;;;12.57;6.85;;;16.30;35.80;;;;;;5047423;28;20100;-68
2021/12/21 12:43:10;;;;;;;11.65;7.03;;;15.60;37.10;;;;;;5034420;28;20029;-68
2021/12/21 12:45:37;;;;;;;14.18;7.70;;;15.10;38.30;;;;;;5048178;28;20040;-68
2021/12/21 12:48:15;;;;;;;12.63;6.85;;;15.10;38.70;;;;;;5034064;28;20060;-68
2021/12/21 12:50:42;;;;;;;14.38;7.95;;;15.70;37.50;;;;;;5037176;28;20021;-68
2021/12/21 12:53:08;;;;;;;13.88;7.28;;;17.60;35.10;;;;;;5041823;28;20124;-68
2021/12/21 12:55:57;;;;;;;11.73;7.18;;;19.80;31.70;;;;;;5045664;28;20473;-67
2021/12/21 12:58:25;;;;;;;11.98;7.18;;;21.10;29.40;;;;;;5049664;28;20025;-68
2021/12/21 13:01:04;;;;;;;9.80;6.68;;;21.60;28.30;;;;;;5035295;28;20060;-67
2021/12/21 13:03:43;;;;;;;12.55;8.00;;;21.90;28.10;;;;;;5054092;28;20040;-67
2021/12/21 13:06:14;;;;;;;13.38;7.93;;;22.30;28.20;;;;;;5037781;28;20022;-67
2021/12/21 13:08:42;;;;;;;14.18;8.10;;;22.80;27.60;;;;;;5042585;28;20064;-67
2021/12/21 13:11:09;;;;;;;22.83;8.40;;;23.30;27.60;;;;;;5040290;28;20069;-67
2021/12/21 13:13:43;;;;;;;13.20;8.00;;;23.60;26.70;;;;;;5049666;28;20068;-67
2021/12/21 13:16:09;;;;;;;13.18;7.80;;;23.90;26.60;;;;;;5034606;28;20104;-68
2021/12/21 13:18:48;;;;;;;13.25;7.88;;;23.90;26.30;;;;;;5032705;28;20025;-67
2021/12/21 13:21:23;;;;;;;12.70;7.72;;;23.90;26.20;;;;;;5046786;28;20021;-66
2021/12/21 13:23:51;;;;;;;13.15;7.25;;;23.70;26.00;;;;;;5037746;28;20043;-67
2021/12/21 13:26:22;;;;;;;10.30;6.60;;;23.40;25.80;;;;;;5042771;28;20047;-67
2021/12/21 13:28:53;;;;;;;11.95;7.95;;;23.20;26.10;;;;;;5045641;28;20033;-67
2021/12/21 13:31:21;;;;;;;13.90;7.65;;;22.80;26.50;;;;;;5031382;28;20133;-67
2021/12/21 13:33:55;;;;;;;13.68;7.88;;;22.40;27.20;;;;;;5034743;28;20018;-68
2021/12/21 13:36:38;;;;;;;11.90;8.23;;;22.10;27.50;;;;;;5033903;28;20026;-67
2021/12/21 13:39:25;;;;;;;13.32;8.35;;;22.00;27.60;;;;;;5034457;28;20024;-67
2021/12/21 13:41:59;;;;;;;12.90;8.43;;;21.90;28.00;;;;;;5039581;28;20029;-67
2021/12/21 13:44:41;;;;;;;14.00;7.82;;;21.80;28.40;;;;;;5040757;28;20040;-67
2021/12/21 13:47:27;;;;;;;14.35;7.70;;;21.70;28.10;;;;;;5034403;28;20488;-66
2021/12/21 13:49:56;;;;;;;14.07;7.32;;;21.60;28.00;;;;;;5041532;28;20121;-67
2021/12/21 13:52:24;;;;;;;12.30;7.03;;;21.40;27.70;;;;;;5034161;28;20040;-68
2021/12/21 13:54:50;;;;;;;12.55;6.78;;;21.10;28.00;;;;;;5031423;28;20033;-68
2021/12/21 13:57:17;;;;;;;11.68;6.05;;;20.80;28.50;;;;;;5034591;28;20026;-68
2021/12/21 13:59:46;;;;;;;13.18;6.95;;;20.70;28.60;;;;;;5033952;28;20124;-67
2021/12/21 14:02:24;;;;;;;12.88;6.78;;;20.40;28.90;;;;;;5044266;28;20057;-67
2021/12/21 14:04:59;;;;;;;13.40;7.10;;;20.10;29.10;;;;;;5045483;28;20488;-67
2021/12/21 14:07:26;;;;;;;12.70;6.50;;;19.90;29.60;;;;;;5045171;28;20026;-68
2021/12/21 14:10:17;;;;;;;13.63;6.95;;;18.70;30.50;;;;;;5047357;28;21504;-69
2021/12/21 14:12:58;;;;;;;14.85;6.80;;;17.40;33.20;;;;;;5050459;28;20094;-67
2021/12/21 14:15:40;;;;;;;;;;;16.40;34.80;;;;;;5039727;28;20032;-70
2021/12/21 14:18:28;;;;;;;13.52;7.18;;;15.80;37.10;;;;;;5046379;28;19909;-70
2021/12/21 14:21:04;;;;;;;13.10;7.93;;;15.30;37.80;;;;;;5047367;28;20515;-71
2021/12/21 14:23:31;;;;;;;14.80;7.60;;;15.00;38.80;;;;;;5039514;28;20428;-71
2021/12/21 14:26:17;;;;;;;14.98;7.75;;;15.10;38.70;;;;;;5031044;28;20491;-70
2021/12/21 14:29:04;;;;;;;15.60;8.25;;;16.00;37.20;;;;;;5033773;28;20013;-70
2021/12/21 14:31:46;;;;;;;15.80;8.32;;;16.40;36.30;;;;;;5041473;28;20060;-70
2021/12/21 14:34:23;;;;;;;15.82;8.30;;;16.60;36.10;;;;;;5039956;28;20033;-70
2021/12/21 14:36:50;;;;;;;18.15;8.52;;;16.50;35.60;;;;;;5046061;28;20032;-70
2021/12/21 14:39:18;;;;;;;14.10;7.80;;;16.50;36.20;;;;;;5045776;28;20025;-70
2021/12/21 14:41:49;;;;;;;13.60;7.43;;;16.40;36.00;;;;;;5043615;28;20025;-69
2021/12/21 14:44:28;;;;;;;13.77;7.93;;;16.30;36.20;;;;;;5037976;28;20128;-69
2021/12/21 14:47:09;;;;;;;15.90;8.05;;;16.10;36.70;;;;;;5045952;28;20030;-70
2021/12/21 14:49:44;;;;;;;17.05;8.65;;;15.50;38.60;;;;;;5044513;28;20083;-70
2021/12/21 14:52:28;;;;;;;16.23;8.25;;;14.60;39.50;;;;;;5056650;28;20061;-69
2021/12/21 14:55:04;;;;;;;15.90;8.10;;;14.00;41.30;;;;;;5048136;28;20090;-69
2021/12/21 14:57:35;;;;;;;16.20;8.35;;;13.40;42.60;;;;;;5049658;28;20021;-69
2021/12/21 15:00:09;;;;;;;16.67;8.45;;;13.00;43.90;;;;;;5036343;28;20040;-69
2021/12/21 15:05:04;;;;;;;18.10;9.10;;;13.00;44.10;;;;;;5051561;28;20116;-69
2021/12/21 15:07:30;;;;;;;16.92;9.32;;;12.70;44.60;;;;;;5041251;28;20036;-69
2021/12/21 15:09:56;;;;;;;18.73;9.70;;;12.40;45.40;;;;;;5046855;28;20423;-69
2021/12/21 15:12:23;;;;;;;17.77;9.02;;;12.00;46.50;;;;;;5047291;28;20041;-69
2021/12/21 15:14:51;;;;;;;18.73;9.02;;;11.70;48.00;;;;;;5048546;28;20031;-69
2021/12/21 15:17:17;;;;;;;21.60;8.98;;;11.30;48.90;;;;;;5045207;28;20075;-69
2021/12/21 15:19:44;;;;;;;19.58;8.73;;;11.00;49.90;;;;;;5049498;28;20070;-69
2021/12/21 15:22:10;;;;;;;16.90;8.80;;;10.80;50.60;;;;;;5052827;28;20028;-70
2021/12/21 15:24:36;;;;;;;16.23;8.65;;;10.50;51.20;;;;;;5050017;28;20029;-69
2021/12/21 15:27:02;;;;;;;19.40;8.50;;;10.30;52.00;;;;;;5047796;28;20037;-69
2021/12/21 15:29:27;;;;;;;15.77;8.75;;;10.00;52.80;;;;;;5052352;28;20025;-69
2021/12/21 15:31:53;;;;;;;17.58;9.05;;;9.80;53.40;;;;;;5048453;28;20060;-69
2021/12/21 15:34:19;;;;;;;19.77;8.90;;;9.60;54.30;;;;;;5037082;28;20087;-70
2021/12/21 15:36:45;;;;;;;22.15;8.90;;;9.50;54.80;;;;;;5054282;28;20036;-70
2021/12/21 15:39:20;;;;;;;16.65;7.95;;;9.30;56.30;;;;;;5050215;28;20491;-70
2021/12/21 15:41:49;;;;;;;21.08;9.35;;;9.20;55.70;;;;;;5046369;28;20036;-70
2021/12/21 15:44:17;;;;;;;17.30;8.65;;;9.00;56.40;;;;;;5053505;28;20056;-70
2021/12/21 15:46:45;;;;;;;18.85;8.40;;;8.90;56.90;;;;;;5049913;28;20049;-70
2021/12/21 15:49:11;;;;;;;22.45;8.65;;;8.70;57.30;;;;;;5045656;28;20086;-70
2021/12/21 15:51:37;;;;;;;19.33;8.20;;;8.60;57.90;;;;;;5048954;28;20037;-70
2021/12/21 15:54:03;;;;;;;24.55;8.88;;;8.40;58.50;;;;;;5040498;28;20098;-70